createdAt,value
2022-12-01T00:01:13.237Z,9.27
2022-12-01T00:03:40.209Z,9.35
2022-12-01T00:06:11.281Z,9.27
2022-12-01T00:08:38.376Z,8.82
2022-12-01T00:11:14.666Z,11.98
2022-12-01T00:13:41.444Z,7.57
2022-12-01T00:16:16.833Z,10.18
2022-12-01T00:18:44.217Z,13.13
2022-12-01T00:21:14.717Z,10.27
2022-12-01T00:23:47.397Z,9.95
2022-12-01T00:26:15.208Z,7.65
2022-12-01T00:28:42.143Z,7.60
2022-12-01T00:31:12.911Z,7.85
2022-12-01T00:33:40.070Z,8.55
2022-12-01T00:36:07.541Z,7.22
2022-12-01T00:38:34.586Z,9.52
2022-12-01T00:41:01.818Z,8.32
2022-12-01T00:43:28.713Z,8.23
2022-12-01T00:45:56.622Z,7.93
2022-12-01T00:48:23.563Z,9.10
2022-12-01T00:50:54.416Z,12.38
2022-12-01T00:53:23.041Z,13.38
2022-12-01T00:55:50.039Z,8.88
2022-12-01T00:58:16.869Z,12.93
2022-12-01T01:00:43.624Z,12.52
2022-12-01T01:03:11.152Z,11.75
2022-12-01T01:05:38.696Z,14.15
2022-12-01T01:08:09.947Z,10.85
2022-12-01T01:10:44.851Z,13.15
2022-12-01T01:13:12.974Z,8.85
2022-12-01T01:15:40.363Z,8.43
2022-12-01T01:18:07.471Z,10.85
2022-12-01T01:20:34.283Z,11.77
2022-12-01T01:23:01.068Z,10.10
2022-12-01T01:25:27.829Z,11.07
2022-12-01T01:27:54.673Z,12.23
2022-12-01T01:30:21.535Z,10.52
2022-12-01T01:32:48.416Z,11.77
2022-12-01T01:35:15.360Z,9.30
2022-12-01T01:37:42.183Z,9.52
2022-12-01T01:40:09.581Z,14.20
2022-12-01T01:42:36.402Z,10.82
2022-12-01T01:45:04.141Z,11.95
2022-12-01T01:47:33.622Z,10.18
2022-12-01T01:50:06.617Z,9.70
2022-12-01T01:52:40.151Z,11.48
2022-12-01T01:55:08.062Z,14.88
2022-12-01T01:57:35.064Z,9.85
2022-12-01T02:00:08.019Z,17.10
2022-12-01T02:02:45.465Z,9.77
2022-12-01T02:05:21.589Z,10.65
2022-12-01T02:07:49.611Z,10.35
2022-12-01T02:10:22.720Z,9.35
2022-12-01T02:13:01.504Z,9.85
2022-12-01T02:15:56.015Z,8.38
2022-12-01T02:18:47.612Z,7.72
2022-12-01T02:21:32.315Z,8.95
2022-12-01T02:24:17.876Z,6.70
2022-12-01T02:26:45.461Z,6.38
2022-12-01T02:29:27.012Z,9.25
2022-12-01T02:32:18.731Z,10.13
2022-12-01T02:35:07.087Z,13.98
2022-12-01T02:37:43.126Z,10.93
2022-12-01T02:40:19.309Z,9.35
2022-12-01T02:43:03.868Z,8.32
2022-12-01T02:45:37.402Z,11.88
2022-12-01T02:48:08.838Z,8.05
2022-12-01T02:50:36.833Z,8.63
2022-12-01T02:53:04.365Z,9.40
2022-12-01T02:55:31.166Z,8.05
2022-12-01T02:57:58.049Z,10.60
2022-12-01T03:00:25.013Z,6.35
2022-12-01T03:03:05.128Z,9.05
2022-12-01T03:05:58.381Z,17.55
2022-12-01T03:08:53.368Z,12.13
2022-12-01T03:11:28.863Z,8.93
2022-12-01T03:14:31.006Z,9.73
2022-12-01T03:16:59.946Z,10.63
2022-12-01T03:19:37.885Z,5.75
2022-12-01T03:22:14.925Z,11.30
2022-12-01T03:24:44.432Z,8.40
2022-12-01T03:27:11.935Z,11.48
2022-12-01T03:29:47.695Z,13.05
2022-12-01T03:32:39.817Z,12.13
2022-12-01T03:35:11.127Z,11.50
2022-12-01T03:37:42.922Z,13.60
2022-12-01T03:40:12.527Z,12.07
2022-12-01T03:42:42.359Z,13.23
2022-12-01T03:45:12.571Z,13.88
2022-12-01T03:47:40.528Z,15.02
2022-12-01T03:50:09.900Z,13.88
2022-12-01T03:53:02.610Z,12.68
2022-12-01T03:55:31.097Z,11.75
2022-12-01T03:58:16.496Z,13.30
2022-12-01T04:00:43.882Z,15.18
2022-12-01T04:03:18.093Z,14.30
2022-12-01T04:05:45.075Z,14.90
2022-12-01T04:08:11.867Z,12.23
2022-12-01T04:10:38.967Z,16.88
2022-12-01T04:13:12.089Z,18.15
2022-12-01T04:15:39.136Z,15.00
2022-12-01T04:18:05.997Z,11.68
2022-12-01T04:20:34.392Z,14.25
2022-12-01T04:23:01.245Z,16.80
2022-12-01T04:25:28.077Z,18.92
2022-12-01T04:27:54.795Z,19.33
2022-12-01T04:30:21.684Z,23.95
2022-12-01T04:32:48.436Z,17.80
2022-12-01T04:35:15.288Z,18.65
2022-12-01T04:37:42.230Z,14.82
2022-12-01T04:40:09.534Z,20.00
2022-12-01T04:42:36.345Z,17.80
2022-12-01T04:45:03.720Z,14.38
2022-12-01T04:47:30.526Z,14.07
2022-12-01T04:49:57.354Z,21.30
2022-12-01T04:52:24.139Z,20.20
2022-12-01T04:54:50.990Z,16.60
2022-12-01T04:57:17.722Z,18.58
2022-12-01T04:59:44.562Z,15.57
2022-12-01T05:02:11.386Z,19.70
2022-12-01T05:04:41.435Z,16.70
2022-12-01T05:07:08.316Z,17.52
2022-12-01T05:09:35.147Z,20.20
2022-12-01T05:12:01.964Z,17.17
2022-12-01T05:14:28.843Z,17.25
2022-12-01T05:16:56.158Z,22.60
2022-12-01T05:19:41.546Z,24.70
2022-12-01T05:22:08.382Z,17.55
2022-12-01T05:24:35.363Z,20.35
2022-12-01T05:27:02.254Z,21.50
2022-12-01T05:29:29.059Z,16.55
2022-12-01T05:31:55.865Z,22.08
2022-12-01T05:34:22.723Z,20.90
2022-12-01T05:36:50.385Z,20.27
2022-12-01T05:39:17.247Z,16.40
2022-12-01T05:41:44.082Z,21.27
2022-12-01T05:44:10.876Z,17.50
2022-12-01T05:46:37.661Z,16.25
2022-12-01T05:49:04.657Z,15.55
2022-12-01T05:51:31.525Z,16.23
2022-12-01T05:53:59.925Z,14.90
2022-12-01T05:56:26.981Z,19.77
2022-12-01T05:58:53.824Z,15.60
2022-12-01T06:01:20.776Z,14.98
2022-12-01T06:03:47.671Z,15.80
2022-12-01T06:06:14.533Z,21.10
2022-12-01T06:08:41.334Z,15.63
2022-12-01T06:11:08.530Z,11.32
2022-12-01T06:13:35.400Z,13.43
2022-12-01T06:16:06.570Z,17.05
2022-12-01T06:18:36.083Z,14.45
2022-12-01T06:21:04.377Z,12.85
2022-12-01T06:23:31.170Z,15.27
2022-12-01T06:25:58.475Z,10.85
2022-12-01T06:28:25.277Z,10.07
2022-12-01T06:30:52.105Z,9.98
2022-12-01T06:33:18.928Z,15.73
2022-12-01T06:35:45.739Z,10.48
2022-12-01T06:38:12.711Z,8.43
2022-12-01T06:40:39.475Z,9.35
2022-12-01T06:43:06.582Z,8.40
2022-12-01T06:45:33.435Z,7.80
2022-12-01T06:48:00.312Z,8.43
2022-12-01T06:50:27.198Z,10.70
2022-12-01T06:52:54.961Z,15.00
2022-12-01T06:55:21.962Z,6.63
2022-12-01T06:57:49.207Z,5.80
2022-12-01T07:00:16.721Z,7.78
2022-12-01T07:02:44.065Z,6.82
2022-12-01T07:05:11.101Z,5.85
2022-12-01T07:07:39.251Z,8.65
2022-12-01T07:10:07.422Z,10.65
2022-12-01T07:12:34.288Z,5.55
2022-12-01T07:15:01.942Z,5.88
2022-12-01T07:17:29.724Z,5.82
2022-12-01T07:19:56.935Z,5.65
2022-12-01T07:22:26.982Z,6.63
2022-12-01T07:24:57.973Z,8.63
2022-12-01T07:27:24.717Z,6.82
2022-12-01T07:29:51.705Z,6.10
2022-12-01T07:32:18.646Z,7.25
2022-12-01T07:34:45.519Z,5.97
2022-12-01T07:37:12.313Z,6.75
2022-12-01T07:39:39.285Z,9.20
2022-12-01T07:42:06.159Z,8.70
2022-12-01T07:44:33.061Z,6.40
2022-12-01T07:46:59.873Z,7.70
2022-12-01T07:49:26.826Z,5.53
2022-12-01T07:51:53.598Z,5.00
2022-12-01T07:54:21.415Z,6.05
2022-12-01T07:56:48.241Z,5.65
2022-12-01T07:59:15.005Z,6.20
2022-12-01T08:01:44.657Z,5.57
2022-12-01T08:04:12.155Z,4.50
2022-12-01T08:06:39.085Z,5.75
2022-12-01T08:09:06.287Z,4.30
2022-12-01T08:11:33.024Z,3.88
2022-12-01T08:13:59.848Z,4.78
2022-12-01T08:16:26.866Z,3.10
2022-12-01T08:18:54.225Z,3.65
2022-12-01T08:21:23.160Z,3.55
2022-12-01T08:23:54.527Z,2.67
2022-12-01T08:26:22.089Z,2.95
2022-12-01T08:28:48.884Z,2.25
2022-12-01T08:31:17.932Z,2.75
2022-12-01T08:33:45.667Z,3.22
2022-12-01T08:36:12.635Z,2.65
2022-12-01T08:38:39.359Z,2.30
2022-12-01T08:41:08.467Z,2.95
2022-12-01T08:43:57.810Z,2.28
2022-12-01T08:46:25.815Z,2.20
2022-12-01T08:48:55.150Z,2.00
2022-12-01T08:51:22.023Z,1.85
2022-12-01T08:53:49.940Z,1.55
2022-12-01T08:56:28.660Z,1.90
2022-12-01T08:58:55.856Z,1.67
2022-12-01T09:01:23.207Z,1.58
2022-12-01T09:04:05.493Z,1.73
2022-12-01T09:06:35.418Z,2.03
2022-12-01T09:09:02.241Z,2.05
2022-12-01T09:11:29.046Z,2.97
2022-12-01T09:13:55.820Z,2.35
2022-12-01T09:16:22.609Z,2.60
2022-12-01T09:18:49.483Z,4.35
2022-12-01T09:21:22.916Z,4.15
2022-12-01T09:23:50.186Z,3.95
2022-12-01T09:26:19.054Z,3.05
2022-12-01T09:28:46.789Z,3.05
2022-12-01T09:31:14.863Z,3.30
2022-12-01T09:33:41.710Z,3.08
2022-12-01T09:36:09.194Z,4.43
2022-12-01T09:38:37.276Z,4.13
2022-12-01T09:41:22.166Z,4.03
2022-12-01T09:43:52.638Z,3.55
2022-12-01T09:46:23.242Z,3.95
2022-12-01T09:48:51.792Z,3.53
2022-12-01T09:51:21.331Z,3.45
2022-12-01T09:53:54.151Z,5.10
2022-12-01T09:56:32.681Z,4.15
2022-12-01T09:59:07.294Z,4.90
2022-12-01T10:01:36.958Z,4.82
2022-12-01T10:04:22.531Z,5.13
2022-12-01T10:06:53.088Z,3.60
2022-12-01T10:09:42.581Z,4.68
2022-12-01T10:12:20.846Z,5.65
2022-12-01T10:14:48.984Z,3.78
2022-12-01T10:17:42.290Z,4.70
2022-12-01T10:20:38.199Z,3.42
2022-12-01T10:23:21.588Z,3.85
2022-12-01T10:26:14.546Z,4.88
2022-12-01T10:29:09.335Z,2.85
2022-12-01T10:31:48.104Z,3.70
2022-12-01T10:34:16.739Z,4.57
2022-12-01T10:36:43.593Z,6.70
2022-12-01T10:39:18.212Z,2.83
2022-12-01T10:41:46.034Z,4.53
2022-12-01T10:44:12.769Z,3.67
2022-12-01T10:46:56.140Z,2.40
2022-12-01T10:49:39.174Z,2.40
2022-12-01T10:52:06.792Z,3.03
2022-12-01T10:54:37.686Z,2.80
2022-12-01T10:57:06.135Z,2.70
2022-12-01T10:59:39.045Z,2.20
2022-12-01T11:02:16.368Z,2.15
2022-12-01T11:04:46.577Z,2.08
2022-12-01T11:07:20.559Z,1.90
2022-12-01T11:10:05.595Z,2.47
2022-12-01T11:12:33.143Z,1.60
2022-12-01T11:15:00.193Z,1.20
2022-12-01T11:17:37.451Z,1.70
2022-12-01T11:20:40.125Z,1.88
2022-12-01T11:23:09.935Z,1.38
2022-12-01T11:25:37.036Z,1.50
2022-12-01T11:28:04.782Z,1.05
2022-12-01T11:30:32.920Z,1.58
2022-12-01T11:33:01.206Z,1.65
2022-12-01T11:35:36.671Z,1.25
2022-12-01T11:40:53.818Z,1.13
2022-12-01T11:43:30.621Z,0.90
2022-12-01T11:45:59.127Z,0.70
2022-12-01T11:48:28.433Z,0.80
2022-12-01T11:51:20.431Z,0.77
2022-12-01T11:53:47.512Z,0.80
2022-12-01T11:56:23.696Z,0.73
2022-12-01T11:58:54.676Z,1.00
2022-12-01T12:04:43.453Z,0.73
2022-12-01T12:07:26.647Z,0.55
2022-12-01T12:10:22.772Z,0.68
2022-12-01T12:13:11.476Z,0.73
2022-12-01T12:15:59.047Z,0.60
2022-12-01T12:18:44.673Z,0.93
2022-12-01T12:21:17.426Z,0.80
2022-12-01T12:24:01.072Z,0.60
2022-12-01T12:26:40.870Z,0.90
2022-12-01T12:29:27.507Z,0.47
2022-12-01T12:31:57.259Z,0.55
2022-12-01T12:34:45.402Z,0.80
2022-12-01T12:37:22.876Z,1.02
2022-12-01T12:40:14.631Z,1.50
2022-12-01T12:42:48.544Z,1.45
2022-12-01T12:45:23.954Z,1.15
2022-12-01T12:48:09.230Z,0.90
2022-12-01T12:50:42.343Z,0.68
2022-12-01T12:53:16.213Z,1.17
2022-12-01T12:55:46.792Z,1.63
2022-12-01T12:58:29.596Z,1.30
2022-12-01T13:01:01.990Z,0.98
2022-12-01T13:03:46.469Z,0.88
2022-12-01T13:06:36.363Z,1.05
2022-12-01T13:09:16.639Z,0.98
2022-12-01T13:12:18.309Z,0.82
2022-12-01T13:14:50.523Z,0.60
2022-12-01T13:18:03.639Z,0.98
2022-12-01T13:20:32.174Z,1.33
2022-12-01T13:22:59.854Z,0.68
2022-12-01T13:25:38.981Z,0.80
2022-12-01T13:28:15.008Z,0.90
2022-12-01T13:31:01.049Z,1.10
2022-12-01T13:33:28.220Z,0.80
2022-12-01T13:36:22.612Z,1.17
2022-12-01T13:38:42.340Z,1.23
2022-12-01T13:41:24.549Z,1.17
2022-12-01T13:44:03.376Z,1.35
2022-12-01T13:46:42.612Z,0.70
2022-12-01T13:49:33.510Z,1.48
2022-12-01T13:52:16.030Z,1.67
2022-12-01T13:55:12.089Z,1.20
2022-12-01T13:58:13.239Z,1.40
2022-12-01T14:00:41.372Z,1.58
2022-12-01T14:03:17.474Z,2.75
2022-12-01T14:05:53.416Z,2.17
2022-12-01T14:08:31.117Z,1.27
2022-12-01T14:10:58.990Z,1.30
2022-12-01T14:13:26.224Z,1.60
2022-12-01T14:15:55.500Z,1.63
2022-12-01T14:18:45.535Z,1.20
2022-12-01T14:21:12.592Z,1.42
2022-12-01T14:24:05.061Z,1.27
2022-12-01T14:26:32.094Z,1.30
2022-12-01T14:29:01.891Z,1.27
2022-12-01T14:31:34.834Z,1.40
2022-12-01T14:34:03.203Z,0.95
2022-12-01T14:36:36.084Z,1.35
2022-12-01T14:39:10.651Z,2.13
2022-12-01T14:41:45.694Z,1.60
2022-12-01T14:44:33.879Z,1.13
2022-12-01T14:47:12.549Z,0.80
2022-12-01T14:50:04.113Z,1.23
2022-12-01T14:52:32.333Z,1.20
2022-12-01T14:55:00.845Z,1.45
2022-12-01T14:57:38.495Z,1.23
2022-12-01T15:00:14.204Z,1.40
2022-12-01T15:03:03.479Z,1.58
2022-12-01T15:05:32.591Z,1.40
2022-12-01T15:08:33.258Z,2.33
2022-12-01T15:10:58.519Z,1.10
2022-12-01T15:13:30.956Z,2.40
2022-12-01T15:15:59.256Z,1.95
2022-12-01T15:18:34.073Z,1.63
2022-12-01T15:21:33.453Z,1.95
2022-12-01T15:24:00.223Z,1.70
2022-12-01T15:26:34.001Z,1.55
2022-12-01T15:29:36.790Z,2.13
2022-12-01T15:32:08.787Z,2.03
2022-12-01T15:34:38.509Z,2.40
2022-12-01T15:37:09.984Z,1.77
2022-12-01T15:39:46.678Z,2.58
2022-12-01T15:42:28.866Z,2.20
2022-12-01T15:45:22.526Z,3.65
2022-12-01T15:47:51.338Z,2.97
2022-12-01T15:50:45.990Z,2.63
2022-12-01T15:53:29.474Z,2.40
2022-12-01T15:55:59.321Z,2.70
2022-12-01T15:58:30.389Z,2.97
2022-12-01T16:03:27.066Z,3.40
2022-12-01T16:05:54.545Z,3.08
2022-12-01T16:08:23.864Z,3.45
2022-12-01T16:11:18.976Z,2.63
2022-12-01T16:13:50.285Z,3.85
2022-12-01T16:16:39.643Z,2.50
2022-12-01T16:19:09.275Z,2.72
2022-12-01T16:21:47.754Z,2.92
2022-12-01T16:24:21.312Z,3.28
2022-12-01T16:26:54.286Z,2.55
2022-12-01T16:29:23.456Z,3.53
2022-12-01T16:32:19.446Z,2.80
2022-12-01T16:34:46.295Z,3.17
2022-12-01T16:37:14.174Z,3.08
2022-12-01T16:39:41.054Z,4.25
2022-12-01T16:42:12.288Z,4.38
2022-12-01T16:44:40.015Z,3.40
2022-12-01T16:47:23.017Z,4.13
2022-12-01T16:49:50.169Z,3.70
2022-12-01T16:55:05.025Z,4.38
2022-12-01T16:57:31.801Z,4.50
2022-12-01T16:59:58.783Z,4.50
2022-12-01T17:02:25.688Z,4.32
2022-12-01T17:04:52.701Z,4.88
2022-12-01T17:07:19.735Z,4.25
2022-12-01T17:09:46.564Z,4.57
2022-12-01T17:12:13.327Z,5.03
2022-12-01T17:14:40.308Z,5.43
2022-12-01T17:17:07.061Z,5.00
2022-12-01T17:19:34.014Z,4.20
2022-12-01T17:22:00.786Z,4.25
2022-12-01T17:24:27.626Z,4.93
2022-12-01T17:26:54.363Z,5.35
2022-12-01T17:29:21.208Z,3.55
2022-12-01T17:31:47.954Z,4.47
2022-12-01T17:34:15.687Z,4.53
2022-12-01T17:36:42.691Z,3.45
2022-12-01T17:39:09.603Z,4.63
2022-12-01T17:41:36.357Z,4.10
2022-12-01T17:44:03.937Z,3.50
2022-12-01T17:46:31.750Z,4.35
2022-12-01T17:48:59.411Z,3.47
2022-12-01T17:51:26.494Z,3.88
2022-12-01T17:53:54.099Z,5.18
2022-12-01T17:56:20.906Z,3.47
2022-12-01T17:58:50.481Z,4.25
2022-12-01T18:01:18.908Z,3.97
2022-12-01T18:03:45.895Z,3.53
2022-12-01T18:06:13.180Z,4.60
2022-12-01T18:08:40.505Z,4.47
2022-12-01T18:11:10.167Z,7.80
2022-12-01T18:13:44.672Z,7.45
2022-12-01T18:16:14.491Z,7.05
2022-12-01T18:18:41.722Z,5.00
2022-12-01T18:21:10.393Z,6.82
2022-12-01T18:23:37.836Z,4.07
2022-12-01T18:26:08.648Z,4.60
2022-12-01T18:28:39.404Z,4.13
2022-12-01T18:31:11.076Z,8.63
2022-12-01T18:33:40.393Z,7.15
2022-12-01T18:36:14.262Z,4.63
2022-12-01T18:38:41.439Z,5.72
2022-12-01T18:41:08.568Z,6.07
2022-12-01T18:43:36.369Z,4.68
2022-12-01T18:46:04.348Z,3.15
2022-12-01T18:48:31.436Z,3.40
2022-12-01T18:51:07.966Z,5.70
2022-12-01T18:53:35.137Z,5.00
2022-12-01T18:56:03.673Z,4.38
2022-12-01T18:58:31.866Z,2.95
2022-12-01T19:00:59.595Z,3.88
2022-12-01T19:03:29.541Z,3.92
2022-12-01T19:05:56.346Z,3.67
2022-12-01T19:08:23.185Z,3.10
2022-12-01T19:11:01.214Z,3.60
2022-12-01T19:13:29.585Z,3.47
2022-12-01T19:15:57.315Z,4.50
2022-12-01T19:18:24.332Z,3.83
2022-12-01T19:20:51.201Z,3.55
2022-12-01T19:23:18.539Z,2.97
2022-12-01T19:25:45.334Z,4.30
2022-12-01T19:28:12.169Z,3.70
2022-12-01T19:30:41.001Z,3.70
2022-12-01T19:33:10.858Z,3.15
2022-12-01T19:35:37.675Z,3.80
2022-12-01T19:38:04.526Z,3.47
2022-12-01T19:40:31.654Z,2.90
2022-12-01T19:42:58.478Z,3.03
2022-12-01T19:45:25.701Z,4.25
2022-12-01T19:47:53.699Z,3.25
2022-12-01T19:50:21.320Z,3.38
2022-12-01T19:52:48.089Z,2.50
2022-12-01T19:55:15.039Z,3.03
2022-12-01T19:57:41.961Z,2.83
2022-12-01T20:00:09.400Z,3.38
2022-12-01T20:02:38.822Z,3.50
2022-12-01T20:05:06.075Z,3.10
2022-12-01T20:07:32.960Z,3.25
2022-12-01T20:09:59.795Z,2.65
2022-12-01T20:12:26.653Z,1.77
2022-12-01T20:14:53.761Z,3.22
2022-12-01T20:17:20.761Z,2.63
2022-12-01T20:19:47.556Z,3.90
2022-12-01T20:22:14.348Z,4.25
2022-12-01T20:24:42.117Z,1.98
2022-12-01T20:27:09.143Z,4.75
2022-12-01T20:29:35.935Z,4.00
2022-12-01T20:32:03.198Z,2.40
2022-12-01T20:34:34.020Z,5.45
2022-12-01T20:37:01.243Z,2.33
2022-12-01T20:39:31.435Z,2.88
2022-12-01T20:41:58.318Z,2.75
2022-12-01T20:44:25.228Z,3.97
2022-12-01T20:46:52.577Z,3.55
2022-12-01T20:49:19.732Z,4.13
2022-12-01T20:51:47.018Z,6.68
2022-12-01T20:54:30.855Z,5.30
2022-12-01T20:56:58.379Z,6.28
2022-12-01T20:59:26.450Z,4.00
2022-12-01T21:01:53.461Z,3.88
2022-12-01T21:04:20.312Z,3.90
2022-12-01T21:06:47.376Z,2.78
2022-12-01T21:09:15.025Z,3.22
2022-12-01T21:12:08.580Z,5.93
2022-12-01T21:14:56.971Z,3.55
2022-12-01T21:17:30.050Z,1.92
2022-12-01T21:20:05.352Z,3.35
2022-12-01T21:22:32.218Z,2.45
2022-12-01T21:27:43.048Z,3.13
2022-12-01T21:30:25.045Z,4.38
2022-12-01T21:32:52.203Z,4.93
2022-12-01T21:35:22.806Z,5.95
2022-12-01T21:37:49.937Z,3.60
2022-12-01T21:40:18.721Z,4.20
2022-12-01T21:42:45.658Z,6.65
2022-12-01T21:45:26.564Z,7.25
2022-12-01T21:50:23.732Z,3.83
2022-12-01T21:52:50.929Z,4.45
2022-12-01T21:55:17.708Z,3.08
2022-12-01T21:57:52.442Z,2.47
2022-12-01T22:00:30.386Z,3.97
2022-12-01T22:03:09.428Z,2.30
2022-12-01T22:05:55.862Z,2.25
2022-12-01T22:08:41.983Z,5.82
2022-12-01T22:11:20.070Z,3.20
2022-12-01T22:13:52.038Z,4.43
2022-12-01T22:16:22.834Z,3.33
2022-12-01T22:18:52.515Z,2.88
2022-12-01T22:21:31.173Z,4.05
2022-12-01T22:24:15.341Z,4.53
2022-12-01T22:26:46.091Z,3.08
2022-12-01T22:29:35.789Z,4.82
2022-12-01T22:32:12.021Z,3.83
2022-12-01T22:34:44.490Z,3.78
2022-12-01T22:37:21.788Z,4.05
2022-12-01T22:39:56.866Z,5.35
2022-12-01T22:42:34.261Z,5.57
2022-12-01T22:45:12.619Z,3.50
2022-12-01T22:47:39.565Z,5.30
2022-12-01T22:50:39.080Z,5.25
2022-12-01T22:53:17.054Z,5.50
2022-12-01T22:55:44.425Z,5.25
2022-12-01T22:58:34.370Z,4.38
2022-12-01T23:01:02.891Z,5.25
2022-12-01T23:03:29.680Z,4.50
2022-12-01T23:05:57.546Z,4.10
2022-12-01T23:08:25.067Z,4.60
2022-12-01T23:10:52.224Z,4.10
2022-12-01T23:13:22.334Z,5.85
2022-12-01T23:15:51.594Z,6.97
2022-12-01T23:18:27.137Z,4.47
2022-12-01T23:21:01.486Z,5.60
2022-12-01T23:23:29.982Z,5.25
2022-12-01T23:25:57.672Z,8.32
2022-12-01T23:28:25.276Z,6.05
2022-12-01T23:30:55.643Z,7.78
2022-12-01T23:33:25.283Z,9.00
2022-12-01T23:36:01.133Z,10.75
2022-12-01T23:38:49.747Z,7.88
2022-12-01T23:41:25.495Z,10.40
2022-12-01T23:43:54.248Z,10.52
2022-12-01T23:46:23.761Z,8.85
2022-12-01T23:48:58.978Z,12.43
2022-12-01T23:51:30.109Z,9.77
2022-12-01T23:53:57.977Z,10.52
2022-12-01T23:56:27.412Z,10.90
2022-12-01T23:58:55.184Z,9.93
